Weather at Hillsboro Municipal Airport

Public forecast

Using degrees Fahrenheit for public forecast. Weather courtesy of forecast.io.

Closest aviation weather report (METAR) to Hillsboro Municipal Airport

Closest report is Hector International Airport, 28.2 nm (52.2 km) SSE.

2022/11/30 17:13 (retrieved 33 minutes ago)

KFAR 301713Z 30019KT 10SM SCT023 BKN029 M12/M17 A3016

Closest aviation forecast (TAF) to Hillsboro Municipal Airport

Closest forecast is Hector International Airport, 28.2 nm (52.2 km) SSE.

2022/11/30 12:36 (retrieved 5 hours ago)

TAF KFAR 301133Z 3012/0112 30015G25KT P6SM SCT060 FM302200 30011KT P6SM SCT220 FM010200 21005KT P6SM FEW250 FM010500 VRB04KT P6SM SCT250 FM010800 14008KT P6SM SCT140 FM011100 14012KT P6SM BKN170